CheckWX is a tool to help pilots better visualize weather data.  It is not intended as a substitute for an official pre-flight weather briefing.

05:13:59 UTC

KAZC METAR
Colorado City Municipal Airport
Colorado City, Arizona, USA
Current

19 mins ago

KAZC 240455Z AUTO 18003KT 10SM BKN100 08/02 A3007 RMK AO2
Observed
Mar-24 @ 04:55 UTC
Wind
  • 180° at 3 KTS
Visibility
10 SM
Flight Rules
VFR
Cloud Levels
  • Broken at 10,000' AGL
Temperature
C / 46°F
Dewpoint
C / 36°F
Humidity
66%
Altimeter
30.07" Hg
Pressure
1018.32 hPa
Previous

39 mins ago

KAZC 240435Z AUTO 00000KT 10SM BKN100 08/02 A3007 RMK AO2
Observed
Mar-24 @ 04:35 UTC
Visibility
10 SM
Flight Rules
VFR
Cloud Levels
  • Broken at 10,000' AGL
Temperature
C / 46°F
Dewpoint
C / 36°F
Humidity
66%
Altimeter
30.07" Hg
Pressure
1018.32 hPa
Previous

59 mins ago

KAZC 240415Z AUTO 00000KT 10SM BKN100 08/03 A3007 RMK AO2
Observed
Mar-24 @ 04:15 UTC
Visibility
10 SM
Flight Rules
VFR
Cloud Levels
  • Broken at 10,000' AGL
Temperature
C / 46°F
Dewpoint
C / 37°F
Humidity
71%
Altimeter
30.07" Hg
Pressure
1018.32 hPa